createdAt,value
2022-09-22T00:00:23.735Z,60.34
2022-09-22T00:02:50.066Z,60.34
2022-09-22T00:05:16.428Z,60.11
2022-09-22T00:07:42.876Z,60.44
2022-09-22T00:10:09.342Z,60.43
2022-09-22T00:12:36.988Z,60.80
2022-09-22T00:15:04.417Z,60.37
2022-09-22T00:17:31.572Z,60.42
2022-09-22T00:19:57.998Z,60.51
2022-09-22T00:22:24.669Z,60.19
2022-09-22T00:24:51.176Z,60.10
2022-09-22T00:27:17.536Z,60.21
2022-09-22T00:29:44.830Z,60.26
2022-09-22T00:32:11.160Z,60.57
2022-09-22T00:34:38.629Z,60.23
2022-09-22T00:37:05.071Z,60.31
2022-09-22T00:39:31.920Z,60.14
2022-09-22T00:41:58.277Z,60.26
2022-09-22T00:44:27.739Z,60.34
2022-09-22T00:47:12.588Z,59.81
2022-09-22T00:49:48.662Z,60.77
2022-09-22T00:52:17.039Z,60.27
2022-09-22T00:54:43.379Z,60.78
2022-09-22T00:57:22.260Z,59.83
2022-09-22T00:59:50.395Z,59.79
2022-09-22T01:02:16.864Z,59.99
2022-09-22T01:04:44.426Z,59.81
2022-09-22T01:07:11.133Z,60.08
2022-09-22T01:09:38.166Z,60.08
2022-09-22T01:12:05.497Z,60.17
2022-09-22T01:15:04.594Z,60.19
2022-09-22T01:17:33.756Z,59.84
2022-09-22T01:20:10.701Z,60.27
2022-09-22T01:22:36.983Z,60.18
2022-09-22T01:25:06.451Z,60.25
2022-09-22T01:27:38.951Z,59.81
2022-09-22T01:30:08.327Z,60.39
2022-09-22T01:32:43.902Z,59.72
2022-09-22T01:35:16.955Z,59.67
2022-09-22T01:37:55.900Z,59.56
2022-09-22T01:40:36.869Z,59.59
2022-09-22T01:43:15.580Z,59.54
2022-09-22T01:45:43.585Z,59.69
2022-09-22T01:48:20.959Z,59.37
2022-09-22T01:50:56.910Z,60.20
2022-09-22T01:53:24.554Z,59.73
2022-09-22T01:55:54.019Z,59.44
2022-09-22T01:58:25.475Z,59.34
2022-09-22T02:00:56.709Z,59.31
2022-09-22T02:03:43.453Z,59.28
2022-09-22T02:06:20.136Z,59.64
2022-09-22T02:08:52.619Z,59.31
2022-09-22T02:11:19.070Z,59.29
2022-09-22T02:13:46.454Z,59.35
2022-09-22T02:16:14.688Z,59.13
2022-09-22T02:19:13.028Z,59.49
2022-09-22T02:21:40.848Z,59.00
2022-09-22T02:24:07.591Z,59.25
2022-09-22T02:26:35.499Z,59.06
2022-09-22T02:29:09.220Z,59.11
2022-09-22T02:31:37.575Z,59.31
2022-09-22T02:34:04.675Z,59.21
2022-09-22T02:36:31.015Z,59.29
2022-09-22T02:39:26.942Z,59.01
2022-09-22T02:42:12.040Z,59.15
2022-09-22T02:44:59.094Z,59.22
2022-09-22T02:47:32.379Z,59.11
2022-09-22T02:50:00.106Z,59.13
2022-09-22T02:52:26.564Z,59.08
2022-09-22T02:54:53.795Z,59.03
2022-09-22T02:57:20.510Z,59.34
2022-09-22T02:59:46.976Z,58.97
2022-09-22T03:02:13.350Z,58.93
2022-09-22T03:04:39.684Z,59.06
2022-09-22T03:07:07.004Z,59.01
2022-09-22T03:09:33.749Z,59.32
2022-09-22T03:12:00.176Z,59.08
2022-09-22T03:14:26.529Z,59.06
2022-09-22T03:16:52.862Z,59.30
2022-09-22T03:19:19.224Z,59.02
2022-09-22T03:21:45.550Z,59.11
2022-09-22T03:24:11.876Z,58.94
2022-09-22T03:26:38.282Z,59.03
2022-09-22T03:29:04.665Z,59.00
2022-09-22T03:31:30.996Z,59.01
2022-09-22T03:33:57.374Z,58.65
2022-09-22T03:36:23.762Z,58.82
2022-09-22T03:38:50.814Z,58.81
2022-09-22T03:41:17.518Z,59.01
2022-09-22T03:43:43.887Z,58.83
2022-09-22T03:46:10.289Z,58.84
2022-09-22T03:48:37.606Z,58.78
2022-09-22T03:51:06.043Z,59.26
2022-09-22T03:53:33.024Z,59.35
2022-09-22T03:56:15.496Z,59.05
2022-09-22T03:58:42.198Z,59.75
2022-09-22T04:01:09.668Z,59.52
2022-09-22T04:03:36.117Z,59.88
2022-09-22T04:06:03.134Z,60.50
2022-09-22T04:08:29.888Z,60.80
2022-09-22T04:10:57.733Z,60.64
2022-09-22T04:13:24.103Z,60.54
2022-09-22T04:15:50.464Z,60.54
2022-09-22T04:18:16.878Z,60.43
2022-09-22T04:20:44.327Z,60.41
2022-09-22T04:23:11.088Z,60.31
2022-09-22T04:25:37.459Z,60.42
2022-09-22T04:28:07.404Z,60.39
2022-09-22T04:30:34.321Z,60.37
2022-09-22T04:33:00.943Z,60.28
2022-09-22T04:35:28.436Z,60.48
2022-09-22T04:37:55.299Z,60.19
2022-09-22T04:40:22.532Z,60.22
2022-09-22T04:42:49.221Z,60.32
2022-09-22T04:45:16.651Z,60.30
2022-09-22T04:47:46.568Z,60.19
2022-09-22T04:50:13.378Z,60.20
2022-09-22T04:52:39.869Z,60.33
2022-09-22T04:55:06.483Z,60.45
2022-09-22T04:57:32.834Z,60.32
2022-09-22T04:59:59.166Z,60.30
2022-09-22T05:02:25.566Z,60.04
2022-09-22T05:04:52.964Z,60.12
2022-09-22T05:07:19.365Z,60.45
2022-09-22T05:09:46.131Z,60.52
2022-09-22T05:12:12.535Z,60.68
2022-09-22T05:14:38.893Z,60.38
2022-09-22T05:17:05.993Z,59.70
2022-09-22T05:19:32.443Z,60.21
2022-09-22T05:21:58.825Z,60.19
2022-09-22T05:24:25.376Z,60.11
2022-09-22T05:26:52.171Z,60.08
2022-09-22T05:29:18.563Z,60.11
2022-09-22T05:31:46.181Z,60.04
2022-09-22T05:34:12.643Z,59.97
2022-09-22T05:36:39.050Z,60.00
2022-09-22T05:39:05.436Z,59.86
2022-09-22T05:41:31.827Z,60.03
2022-09-22T05:43:58.226Z,59.54
2022-09-22T05:46:24.583Z,59.59
2022-09-22T05:48:50.906Z,59.54
2022-09-22T05:51:17.238Z,59.73
2022-09-22T05:53:43.543Z,60.01
2022-09-22T05:56:10.026Z,60.15
2022-09-22T05:58:36.369Z,59.66
2022-09-22T06:01:04.509Z,59.59
2022-09-22T06:03:31.084Z,59.84
2022-09-22T06:05:57.755Z,60.14
2022-09-22T06:08:24.075Z,60.16
2022-09-22T06:10:51.350Z,59.78
2022-09-22T06:13:17.771Z,60.25
2022-09-22T06:15:44.616Z,59.67
2022-09-22T06:18:15.006Z,59.97
2022-09-22T06:20:42.397Z,60.16
2022-09-22T06:23:09.070Z,59.88
2022-09-22T06:25:35.414Z,59.92
2022-09-22T06:28:04.871Z,60.08
2022-09-22T06:30:31.936Z,59.99
2022-09-22T06:32:58.660Z,60.14
2022-09-22T06:35:24.977Z,60.21
2022-09-22T06:37:58.015Z,60.17
2022-09-22T06:40:27.884Z,60.17
2022-09-22T06:42:57.968Z,59.94
2022-09-22T06:45:26.115Z,60.11
2022-09-22T06:47:56.888Z,59.98
2022-09-22T06:50:23.219Z,60.14
2022-09-22T06:52:51.973Z,60.11
2022-09-22T06:55:20.694Z,60.10
2022-09-22T06:57:46.994Z,60.14
2022-09-22T07:00:15.096Z,60.25
2022-09-22T07:02:41.454Z,60.22
2022-09-22T07:05:08.159Z,60.14
2022-09-22T07:07:34.524Z,60.21
2022-09-22T07:10:00.924Z,60.31
2022-09-22T07:12:28.143Z,60.36
2022-09-22T07:14:56.470Z,60.21
2022-09-22T07:17:23.661Z,60.32
2022-09-22T07:19:51.426Z,60.50
2022-09-22T07:22:19.218Z,60.51
2022-09-22T07:24:45.875Z,60.48
2022-09-22T07:27:13.059Z,60.27
2022-09-22T07:29:39.504Z,60.30
2022-09-22T07:32:06.408Z,60.41
2022-09-22T07:34:32.754Z,60.41
2022-09-22T07:36:59.572Z,60.54
2022-09-22T07:39:25.932Z,60.24
2022-09-22T07:41:52.335Z,60.39
2022-09-22T07:44:41.016Z,60.50
2022-09-22T07:47:10.605Z,60.54
2022-09-22T07:49:36.962Z,60.58
2022-09-22T07:52:03.490Z,60.40
2022-09-22T07:54:29.822Z,60.33
2022-09-22T07:56:58.379Z,60.59
2022-09-22T07:59:25.926Z,60.55
2022-09-22T08:01:52.550Z,60.47
2022-09-22T08:04:22.674Z,60.53
2022-09-22T08:06:52.064Z,60.47
2022-09-22T08:09:18.795Z,60.52
2022-09-22T08:11:48.471Z,59.96
2022-09-22T08:14:17.274Z,59.89
2022-09-22T08:16:43.962Z,59.86
2022-09-22T08:19:12.531Z,59.76
2022-09-22T08:21:48.036Z,59.93
2022-09-22T08:24:16.090Z,59.65
2022-09-22T08:26:48.377Z,59.61
2022-09-22T08:29:14.965Z,59.63
2022-09-22T08:31:42.045Z,59.32
2022-09-22T08:34:09.402Z,59.50
2022-09-22T08:36:36.934Z,59.47
2022-09-22T08:39:03.891Z,59.46
2022-09-22T08:41:39.041Z,59.59
2022-09-22T08:44:11.640Z,59.53
2022-09-22T08:46:44.019Z,59.55
2022-09-22T08:49:29.205Z,59.64
2022-09-22T08:51:58.607Z,59.76
2022-09-22T08:54:31.558Z,59.92
2022-09-22T08:57:16.164Z,59.75
2022-09-22T08:59:42.758Z,59.88
2022-09-22T09:02:15.177Z,59.90
2022-09-22T09:07:14.884Z,60.05
2022-09-22T09:09:47.479Z,60.10
2022-09-22T09:12:16.856Z,59.93
2022-09-22T09:14:43.235Z,59.94
2022-09-22T09:17:12.740Z,60.00
2022-09-22T09:19:50.660Z,60.04
2022-09-22T09:22:32.123Z,60.04
2022-09-22T09:27:49.667Z,60.06
2022-09-22T09:30:19.763Z,59.94
2022-09-22T09:32:49.127Z,59.83
2022-09-22T09:35:17.098Z,59.35
2022-09-22T09:37:45.236Z,59.50
2022-09-22T09:40:17.748Z,59.62
2022-09-22T09:42:47.151Z,59.88
2022-09-22T09:45:15.023Z,59.95
2022-09-22T09:47:51.715Z,59.83
2022-09-22T09:50:19.095Z,59.70
2022-09-22T09:52:45.586Z,59.52
2022-09-22T09:55:18.666Z,59.90
2022-09-22T09:58:04.059Z,59.93
2022-09-22T10:00:33.598Z,59.98
2022-09-22T10:03:02.740Z,59.55
2022-09-22T10:05:30.042Z,59.84
2022-09-22T10:08:15.276Z,59.88
2022-09-22T10:10:42.022Z,59.89
2022-09-22T10:13:08.318Z,59.61
2022-09-22T10:15:39.115Z,59.60
2022-09-22T10:18:23.742Z,59.54
2022-09-22T10:21:02.157Z,59.45
2022-09-22T10:23:28.794Z,59.22
2022-09-22T10:26:13.719Z,59.50
2022-09-22T10:28:40.175Z,59.65
2022-09-22T10:31:06.549Z,59.77
2022-09-22T10:33:33.378Z,59.60
2022-09-22T10:36:12.174Z,59.52
2022-09-22T10:38:41.012Z,58.60
2022-09-22T10:41:10.575Z,59.08
2022-09-22T10:43:48.821Z,59.08
2022-09-22T10:46:19.360Z,59.23
2022-09-22T10:48:54.304Z,59.10
2022-09-22T10:51:39.899Z,59.12
2022-09-22T10:54:21.394Z,59.26
2022-09-22T10:56:50.295Z,59.25
2022-09-22T10:59:16.685Z,59.08
2022-09-22T11:01:49.244Z,58.73
2022-09-22T11:04:15.703Z,58.96
2022-09-22T11:07:00.867Z,58.81
2022-09-22T11:09:50.146Z,58.45
2022-09-22T11:12:35.620Z,58.82
2022-09-22T11:15:07.791Z,58.96
2022-09-22T11:17:34.695Z,58.88
2022-09-22T11:20:23.086Z,58.88
2022-09-22T11:22:58.659Z,58.88
2022-09-22T11:25:44.070Z,58.98
2022-09-22T11:28:13.538Z,58.75
2022-09-22T11:30:39.971Z,58.90
2022-09-22T11:33:09.991Z,58.70
2022-09-22T11:35:55.038Z,58.67
2022-09-22T11:38:40.306Z,58.80
2022-09-22T11:41:16.251Z,58.57
2022-09-22T11:43:51.917Z,58.56
2022-09-22T11:46:37.931Z,58.53
2022-09-22T11:49:10.685Z,58.75
2022-09-22T11:51:46.156Z,58.55
2022-09-22T11:54:30.828Z,58.49
2022-09-22T11:57:02.325Z,58.54
2022-09-22T11:59:47.430Z,58.63
2022-09-22T12:02:20.685Z,58.47
2022-09-22T12:04:52.822Z,58.45
2022-09-22T12:07:24.507Z,58.48
2022-09-22T12:09:53.857Z,58.60
2022-09-22T12:12:22.157Z,58.56
2022-09-22T12:14:51.724Z,58.54
2022-09-22T12:17:23.588Z,58.42
2022-09-22T12:19:57.404Z,58.76
2022-09-22T12:22:31.235Z,58.60
2022-09-22T12:24:58.384Z,58.83
2022-09-22T12:27:26.181Z,58.25
2022-09-22T12:29:55.675Z,58.67
2022-09-22T12:32:23.871Z,58.51
2022-09-22T12:34:51.334Z,58.57
2022-09-22T12:37:29.789Z,58.69
2022-09-22T12:39:59.699Z,58.78
2022-09-22T12:42:35.185Z,58.62
2022-09-22T12:45:13.450Z,58.73
2022-09-22T12:47:41.271Z,58.78
2022-09-22T12:50:27.659Z,58.86
2022-09-22T12:52:54.397Z,58.71
2022-09-22T12:55:21.653Z,58.83
2022-09-22T12:57:51.804Z,58.96
2022-09-22T13:00:21.632Z,58.72
2022-09-22T13:02:49.845Z,59.13
2022-09-22T13:05:28.388Z,58.90
2022-09-22T13:07:55.781Z,58.55
2022-09-22T13:10:22.514Z,58.72
2022-09-22T13:13:01.089Z,58.86
2022-09-22T13:15:28.995Z,58.70
2022-09-22T13:17:55.401Z,58.72
2022-09-22T13:20:24.041Z,58.82
2022-09-22T13:22:51.936Z,58.61
2022-09-22T13:25:23.158Z,58.59
2022-09-22T13:30:33.159Z,58.57
2022-09-22T13:32:59.598Z,58.48
2022-09-22T13:35:31.666Z,58.49
2022-09-22T13:37:58.883Z,58.52
2022-09-22T13:40:27.309Z,57.86
2022-09-22T13:42:55.724Z,58.19
2022-09-22T13:45:26.101Z,58.31
2022-09-22T13:47:55.370Z,58.37
2022-09-22T13:50:22.661Z,58.56
2022-09-22T13:52:51.169Z,58.47
2022-09-22T13:55:21.907Z,58.48
2022-09-22T13:57:48.486Z,58.60
2022-09-22T14:00:20.786Z,58.70
2022-09-22T14:02:47.335Z,58.68
2022-09-22T14:05:18.651Z,58.57
2022-09-22T14:08:07.699Z,58.53
2022-09-22T14:10:32.725Z,58.48
2022-09-22T14:12:59.108Z,58.57
2022-09-22T14:15:37.672Z,58.34
2022-09-22T14:18:19.331Z,58.39
2022-09-22T14:20:45.902Z,58.24
2022-09-22T14:23:15.719Z,58.43
2022-09-22T14:25:42.059Z,58.11
2022-09-22T14:28:14.686Z,58.30
2022-09-22T14:30:42.040Z,58.27
2022-09-22T14:33:15.416Z,58.13
2022-09-22T14:35:42.260Z,58.16
2022-09-22T14:38:14.399Z,58.21
2022-09-22T14:40:50.662Z,57.98
2022-09-22T14:43:38.947Z,57.96
2022-09-22T16:47:48.374Z,58.83
2022-09-22T16:50:14.731Z,58.82
2022-09-22T16:52:41.047Z,58.87
2022-09-22T16:55:07.570Z,58.74
2022-09-22T16:57:34.007Z,58.03
2022-09-22T17:00:00.448Z,58.30
2022-09-22T17:02:26.900Z,58.25
2022-09-22T17:04:54.370Z,58.54
2022-09-22T17:07:20.707Z,58.66
2022-09-22T17:09:47.559Z,58.78
2022-09-22T17:12:13.869Z,58.80
2022-09-22T17:14:41.467Z,59.05
2022-09-22T17:17:09.030Z,58.75
2022-09-22T17:19:35.514Z,58.62
2022-09-22T17:22:01.982Z,58.69
2022-09-22T17:24:29.103Z,58.63
2022-09-22T17:26:59.081Z,58.71
2022-09-22T17:29:26.702Z,58.65
2022-09-22T17:31:56.474Z,58.67
2022-09-22T17:34:24.098Z,58.76
2022-09-22T17:36:51.208Z,58.75
2022-09-22T17:39:17.615Z,58.75
2022-09-22T17:41:47.929Z,58.62
2022-09-22T17:44:17.031Z,58.51
2022-09-22T17:47:01.998Z,58.60
2022-09-22T17:49:46.776Z,58.31
2022-09-22T17:52:47.302Z,58.22
2022-09-22T17:55:20.570Z,58.12
2022-09-22T17:57:47.143Z,58.20
2022-09-22T18:00:15.380Z,58.04
2022-09-22T18:02:42.059Z,58.08
2022-09-22T18:05:10.574Z,58.24
2022-09-22T18:07:38.282Z,58.19
2022-09-22T18:10:06.785Z,58.47
2022-09-22T18:12:34.282Z,58.39
2022-09-22T18:15:03.902Z,58.65
2022-09-22T18:17:40.185Z,58.54
2022-09-22T18:20:07.322Z,58.43
2022-09-22T18:22:33.749Z,58.56
2022-09-22T18:25:00.070Z,58.70
2022-09-22T18:27:29.860Z,58.60
2022-09-22T18:29:58.977Z,58.48
2022-09-22T18:32:26.471Z,58.67
2022-09-22T18:34:53.821Z,58.51
2022-09-22T18:37:21.163Z,58.64
2022-09-22T18:39:48.244Z,58.60
2022-09-22T18:42:14.616Z,58.61
2022-09-22T18:44:44.163Z,58.52
2022-09-22T18:47:13.517Z,58.45
2022-09-22T18:49:40.816Z,58.47
2022-09-22T18:52:07.612Z,58.57
2022-09-22T18:54:34.240Z,58.56
